Time;durP1;ratioP1;P1;durP2;ratioP2;P2;SDS_P1;SDS_P2;PMS_P1;PMS_P2;Temp;Humidity;BMP_temperature;BMP_pressure;BME280_temperature;BME280_humidity;BME280_pressure;Samples;Min_cycle;Max_cycle;Signal;HPM_P1;HPM_P2
2024/01/16 00:00:11;;;;;;;;;56.75;43.75;;;;;2.38;59.22;101120.38;5119090;27;64862;-48
2024/01/16 00:02:36;;;;;;;;;49.75;39.00;;;;;2.37;59.04;101117.78;5116780;27;45892;-51
2024/01/16 00:05:02;;;;;;;;;50.25;39.50;;;;;2.36;59.20;101116.03;5119413;27;45674;-51
2024/01/16 00:07:28;;;;;;;;;39.50;35.50;;;;;2.33;59.20;101114.31;5119561;27;45455;-51
2024/01/16 00:09:53;;;;;;;;;50.50;41.50;;;;;2.33;59.29;101109.06;5118664;27;45487;-51
2024/01/16 00:12:19;;;;;;;;;53.50;41.75;;;;;2.29;59.28;101100.38;5120056;27;46135;-52
2024/01/16 00:14:44;;;;;;;;;57.00;46.00;;;;;2.27;59.63;101107.38;5118149;27;45371;-52
2024/01/16 00:17:11;;;;;;;;;46.25;38.75;;;;;2.25;59.53;101103.91;5117109;27;45309;-51
2024/01/16 00:19:36;;;;;;;;;49.75;42.25;;;;;2.22;59.68;101093.44;5118602;27;45287;-52
2024/01/16 00:22:03;;;;;;;;;56.25;41.75;;;;;2.21;59.99;101099.56;5117128;27;46606;-50
2024/01/16 00:24:29;;;;;;;;;53.50;42.50;;;;;2.17;60.42;101097.88;5119843;27;45458;-50
2024/01/16 00:26:54;;;;;;;;;57.00;44.50;;;;;2.14;59.82;101093.53;5115927;27;67835;-50
2024/01/16 00:29:20;;;;;;;;;60.75;48.00;;;;;2.11;60.14;101096.19;5118304;27;45437;-52
2024/01/16 00:31:45;;;;;;;;;62.25;49.00;;;;;2.07;59.81;101110.19;5118178;27;46124;-50
2024/01/16 00:34:10;;;;;;;;;61.25;47.75;;;;;2.04;59.97;101105.00;5115207;27;45396;-48
2024/01/16 00:36:36;;;;;;;;;61.00;52.00;;;;;2.04;60.00;101104.13;5118297;27;69293;-50
2024/01/16 00:39:02;;;;;;;;;58.50;48.25;;;;;2.02;59.85;101103.25;5118056;27;68597;-49
2024/01/16 00:41:28;;;;;;;;;70.00;50.50;;;;;2.00;60.27;101097.19;5118299;27;45544;-53
2024/01/16 00:43:53;;;;;;;;;60.25;49.00;;;;;1.98;60.35;101099.78;5118720;27;45378;-49
2024/01/16 00:46:18;;;;;;;;;69.50;52.00;;;;;1.95;59.90;101102.47;5116121;27;50586;-49
2024/01/16 00:48:44;;;;;;;;;65.00;49.75;;;;;1.95;60.19;101107.72;5118491;27;70655;-49
2024/01/16 00:51:09;;;;;;;;;53.50;40.75;;;;;1.92;59.86;101103.34;5113031;27;74792;-48
2024/01/16 00:53:40;;;;;;;;;57.00;46.25;;;;;1.91;60.05;101091.13;5103208;27;73346;-53
2024/01/16 00:56:05;;;;;;;;;56.25;41.25;;;;;1.90;60.60;101101.63;5115207;27;45396;-49
2024/01/16 00:58:30;;;;;;;;;53.25;43.25;;;;;1.87;59.99;101097.28;5117520;27;70268;-50
2024/01/16 01:00:56;;;;;;;;;61.75;46.75;;;;;1.86;60.31;101097.31;5115655;27;74367;-51
2024/01/16 01:03:21;;;;;;;;;56.25;45.00;;;;;1.85;60.28;101085.91;5110834;27;45684;-50
2024/01/16 01:05:46;;;;;;;;;50.75;41.50;;;;;1.85;59.96;101087.69;5115861;27;68184;-49
2024/01/16 01:08:12;;;;;;;;;63.75;47.00;;;;;1.82;60.05;101099.06;5117195;27;70473;-48
2024/01/16 01:10:37;;;;;;;;;61.00;46.25;;;;;1.79;60.29;101086.84;5117755;27;75651;-50
2024/01/16 01:13:02;;;;;;;;;61.75;44.00;;;;;1.79;59.70;101097.34;5118261;27;45410;-48
2024/01/16 01:15:28;;;;;;;;;58.50;46.50;;;;;1.79;60.01;101076.38;5117976;27;45669;-49
2024/01/16 01:17:54;;;;;;;;;49.25;42.50;;;;;1.81;59.92;101071.09;5119851;27;45238;-49
2024/01/16 01:20:19;;;;;;;;;51.75;42.25;;;;;1.80;60.38;101072.00;5117480;27;46344;-52
2024/01/16 01:22:45;;;;;;;;;57.50;43.75;;;;;1.80;60.35;101083.34;5117855;27;45353;-50
2024/01/16 01:25:13;;;;;;;;;61.75;44.75;;;;;1.78;60.30;101079.88;5115996;27;68287;-48
2024/01/16 01:27:39;;;;;;;;;57.25;44.25;;;;;1.77;60.20;101082.50;5119128;27;45356;-49
2024/01/16 01:30:07;;;;;;;;;55.00;45.00;;;;;1.75;60.22;101089.53;5118079;27;46547;-51
2024/01/16 01:32:32;;;;;;;;;64.25;50.25;;;;;1.73;60.39;101088.66;5115829;27;45283;-52
2024/01/16 01:34:58;;;;;;;;;62.25;49.25;;;;;1.72;60.67;101092.16;5115998;27;45444;-48
2024/01/16 01:37:23;;;;;;;;;60.25;49.25;;;;;1.71;60.45;101098.28;5116503;27;45478;-48
2024/01/16 01:39:48;;;;;;;;;62.75;44.75;;;;;1.70;60.80;101091.34;5116070;27;75622;-48
2024/01/16 01:42:15;;;;;;;;;56.25;46.50;;;;;1.69;61.04;101103.56;5105803;27;68805;-51
2024/01/16 01:44:41;;;;;;;;;60.75;43.75;;;;;1.69;60.92;101106.19;5119146;27;45447;-52
2024/01/16 01:47:07;;;;;;;;;60.00;47.00;;;;;1.69;61.02;101106.19;5112439;27;45383;-51
2024/01/16 01:49:32;;;;;;;;;61.25;49.00;;;;;1.69;60.86;101121.91;5116499;27;73073;-51
2024/01/16 01:51:57;;;;;;;;;65.50;47.00;;;;;1.69;60.78;101123.69;5107316;27;70066;-47
2024/01/16 01:54:24;;;;;;;;;51.50;43.75;;;;;1.68;60.62;101120.16;5115885;27;64702;-50
2024/01/16 01:56:50;;;;;;;;;62.25;48.00;;;;;1.69;60.89;101128.94;5110660;27;62349;-48
2024/01/16 01:59:18;;;;;;;;;44.25;39.25;;;;;1.67;60.92;101125.44;5108715;27;47097;-50
2024/01/16 02:01:45;;;;;;;;;34.00;34.00;;;;;1.63;60.65;101120.22;5114152;27;45380;-48
2024/01/16 02:04:18;;;;;;;;;53.50;41.00;;;;;1.62;60.61;101118.47;5117965;27;45503;-48
2024/01/16 02:06:46;;;;;;;;;35.00;22.75;;;;;1.61;60.95;101115.88;5131318;27;45641;-52
2024/01/16 02:09:13;;;;;;;;;53.25;44.25;;;;;1.59;60.97;101110.66;5121410;27;46276;-48
2024/01/16 02:11:41;;;;;;;;;43.00;36.00;;;;;1.57;60.75;101115.00;5118082;27;45451;-52
2024/01/16 02:14:07;;;;;;;;;52.50;37.00;;;;;1.54;61.44;101103.69;5121452;27;45659;-50
2024/01/16 02:16:38;;;;;;;;;41.75;38.50;;;;;1.51;61.10;101106.34;5118109;27;45453;-51
2024/01/16 02:19:04;;;;;;;;;52.50;44.00;;;;;1.48;60.65;101102.84;5120264;27;46172;-47
2024/01/16 02:21:48;;;;;;;;;60.75;42.75;;;;;1.46;60.95;101111.59;5117578;27;58531;-50
2024/01/16 02:24:13;;;;;;;;;55.50;40.25;;;;;1.43;61.45;101091.50;5117688;27;45481;-47
2024/01/16 02:26:39;;;;;;;;;45.50;38.50;;;;;1.43;61.41;101095.91;5115808;27;70724;-51
2024/01/16 02:29:04;;;;;;;;;43.50;36.75;;;;;1.42;61.00;101095.03;5106085;27;56585;-48
2024/01/16 02:31:31;;;;;;;;;37.00;33.00;;;;;1.41;61.52;101088.06;5110361;27;68455;-49
2024/01/16 02:33:56;;;;;;;;;44.50;37.25;;;;;1.41;61.31;101090.69;5122274;27;45589;-49
2024/01/16 02:36:21;;;;;;;;;46.50;36.75;;;;;1.39;61.64;101084.56;5119896;27;67153;-47
2024/01/16 02:38:47;;;;;;;;;51.50;35.25;;;;;1.39;61.53;101083.69;5118960;27;75527;-48
2024/01/16 02:41:16;;;;;;;;;41.50;36.00;;;;;1.38;61.42;101079.34;5120534;27;45317;-50
2024/01/16 02:43:42;;;;;;;;;38.50;37.25;;;;;1.37;61.79;101075.84;5120363;27;45719;-48
2024/01/16 02:46:08;;;;;;;;;37.25;32.50;;;;;1.34;61.29;101075.00;5120927;27;45492;-47
2024/01/16 02:48:34;;;;;;;;;47.00;35.50;;;;;1.31;62.01;101084.63;5117394;27;45451;-49
2024/01/16 02:50:59;;;;;;;;;39.25;32.50;;;;;1.30;61.40;101066.28;5120111;27;45525;-52
2024/01/16 02:53:25;;;;;;;;;46.50;37.50;;;;;1.28;61.41;101070.69;5118213;27;45418;-50
2024/01/16 02:55:51;;;;;;;;;44.50;35.75;;;;;1.26;61.48;101062.81;5121060;27;45518;-52
2024/01/16 02:58:17;;;;;;;;;46.00;32.00;;;;;1.23;61.84;101057.59;5120041;27;47119;-48
2024/01/16 03:00:42;;;;;;;;;40.50;35.25;;;;;1.20;61.93;101055.00;5120274;27;46612;-52
2024/01/16 03:03:08;;;;;;;;;43.50;34.25;;;;;1.19;61.97;101050.66;5144332;27;45285;-48
2024/01/16 03:05:34;;;;;;;;;39.50;32.00;;;;;1.19;61.55;101060.25;5116183;27;45374;-49
2024/01/16 03:08:00;;;;;;;;;31.25;28.25;;;;;1.17;62.12;101055.00;5111270;27;46446;-50
2024/01/16 03:10:26;;;;;;;;;36.00;31.25;;;;;1.13;61.92;101056.81;5117197;27;45376;-49
2024/01/16 03:12:51;;;;;;;;;32.75;32.00;;;;;1.11;62.14;101048.06;5118227;27;45374;-48
2024/01/16 03:15:17;;;;;;;;;34.00;31.50;;;;;1.10;61.69;101046.31;5118501;27;45765;-48
2024/01/16 03:17:42;;;;;;;;;39.25;31.00;;;;;1.12;62.46;101038.44;5120297;27;65908;-50
2024/01/16 03:20:08;;;;;;;;;46.75;32.50;;;;;1.12;61.78;101041.97;5119602;27;68973;-49
2024/01/16 03:22:34;;;;;;;;;37.25;30.75;;;;;1.10;61.92;101035.84;5117521;27;45402;-47
2024/01/16 03:24:59;;;;;;;;;37.50;31.75;;;;;1.10;61.79;101041.09;5120180;27;45554;-48
2024/01/16 03:27:24;;;;;;;;;46.25;36.50;;;;;1.09;62.01;101033.25;5116338;27;70315;-47
2024/01/16 03:29:50;;;;;;;;;44.50;38.25;;;;;1.07;61.90;101043.75;5117253;27;69707;-49
2024/01/16 03:32:15;;;;;;;;;46.50;39.75;;;;;1.08;62.21;101047.22;5114329;27;45459;-51
2024/01/16 03:34:41;;;;;;;;;46.00;36.50;;;;;1.06;62.25;101047.22;5117847;27;45411;-48
2024/01/16 03:37:06;;;;;;;;;42.25;36.25;;;;;1.07;62.34;101048.97;5118938;27;46167;-48
2024/01/16 03:39:31;;;;;;;;;33.75;33.25;;;;;1.08;62.41;101052.47;5119324;27;72217;-48
2024/01/16 03:41:57;;;;;;;;;43.00;35.00;;;;;1.08;62.90;101047.22;5118166;27;64337;-48
2024/01/16 03:44:22;;;;;;;;;56.00;38.00;;;;;1.07;62.91;101045.47;5118929;27;70445;-50
2024/01/16 03:46:47;;;;;;;;;42.00;33.50;;;;;1.08;62.97;101044.59;5119072;27;46980;-49
2024/01/16 03:49:13;;;;;;;;;47.00;36.00;;;;;1.07;62.98;101048.09;5119549;27;63174;-51
2024/01/16 03:51:38;;;;;;;;;34.75;31.75;;;;;1.05;62.37;101039.38;5117241;27;63358;-49
2024/01/16 03:54:04;;;;;;;;;37.50;32.50;;;;;1.04;62.79;101041.13;5117649;27;45613;-51
2024/01/16 03:56:29;;;;;;;;;39.25;32.25;;;;;1.06;62.32;101043.75;5118454;27;46878;-49
2024/01/16 03:58:54;;;;;;;;;29.00;23.25;;;;;1.04;62.74;101040.25;5119180;27;73152;-48
2024/01/16 04:01:30;;;;;;;;;40.00;35.00;;;;;1.03;62.41;101036.78;5118362;27;45432;-50
2024/01/16 04:03:55;;;;;;;;;39.75;36.00;;;;;1.01;63.03;101035.06;5119656;27;45504;-47
2024/01/16 04:06:20;;;;;;;;;38.25;32.50;;;;;0.99;63.15;101040.28;5117482;27;69942;-48
2024/01/16 04:08:46;;;;;;;;;40.50;32.50;;;;;0.98;62.98;101030.72;5118097;27;70660;-49
2024/01/16 04:11:13;;;;;;;;;46.25;35.25;;;;;0.98;62.43;101035.94;5117035;27;69026;-49
2024/01/16 04:13:38;;;;;;;;;38.25;35.50;;;;;0.97;63.05;101039.44;5118602;27;45494;-48
2024/01/16 04:16:04;;;;;;;;;41.25;35.50;;;;;0.97;62.47;101028.97;5118168;27;47934;-50
2024/01/16 04:18:29;;;;;;;;;40.75;37.00;;;;;0.97;63.03;101032.44;5115470;27;45481;-48
2024/01/16 04:20:54;;;;;;;;;34.00;30.25;;;;;0.98;62.83;101028.09;5117536;27;62851;-49
2024/01/16 04:23:20;;;;;;;;;38.00;31.75;;;;;0.98;62.33;101025.47;5117887;27;51537;-50
2024/01/16 04:25:45;;;;;;;;;39.75;32.50;;;;;0.96;63.06;101030.69;5118431;27;75356;-51
2024/01/16 04:28:11;;;;;;;;;41.00;32.25;;;;;0.95;63.09;101015.88;5119538;27;45352;-48
2024/01/16 04:30:36;;;;;;;;;36.00;31.50;;;;;0.94;62.87;101008.91;5117970;27;65264;-52
2024/01/16 04:33:02;;;;;;;;;41.25;32.25;;;;;0.95;63.29;101020.22;5117602;27;45641;-52
2024/01/16 04:35:29;;;;;;;;;31.50;27.00;;;;;0.93;62.52;101012.38;5136674;27;46407;-52
2024/01/16 04:37:54;;;;;;;;;41.75;31.75;;;;;0.90;62.84;101004.56;5115683;27;45544;-51
2024/01/16 04:40:19;;;;;;;;;36.75;31.00;;;;;0.90;63.44;101008.91;5117897;27;62214;-52
2024/01/16 04:42:44;;;;;;;;;35.50;32.25;;;;;0.89;63.72;101010.66;5116787;27;69799;-51
2024/01/16 04:45:10;;;;;;;;;31.75;31.50;;;;;0.87;62.86;101012.41;5117773;27;46020;-50
2024/01/16 04:47:35;;;;;;;;;44.75;34.25;;;;;0.84;63.58;101003.72;5119254;27;62654;-50
2024/01/16 04:50:00;;;;;;;;;40.00;37.50;;;;;0.81;63.98;101008.09;5118348;27;61925;-51
2024/01/16 04:52:26;;;;;;;;;42.25;31.00;;;;;0.81;63.91;101008.09;5145111;27;62133;-50
2024/01/16 04:54:52;;;;;;;;;38.00;34.00;;;;;0.80;63.16;100998.50;5118193;27;45908;-47
2024/01/16 04:57:18;;;;;;;;;30.25;24.00;;;;;0.78;63.86;100995.03;5119250;27;45488;-52
2024/01/16 04:59:43;;;;;;;;;36.00;33.00;;;;;0.76;64.07;100988.06;5117069;27;69008;-50
2024/01/16 05:02:08;;;;;;;;;39.00;35.00;;;;;0.73;63.78;100978.47;5116218;27;45419;-48
2024/01/16 05:04:37;;;;;;;;;44.50;35.75;;;;;0.73;63.48;100974.97;5112579;27;46561;-46
2024/01/16 05:07:03;;;;;;;;;44.00;34.50;;;;;0.71;64.30;100972.38;5101909;27;45350;-50
2024/01/16 05:09:28;;;;;;;;;39.75;35.00;;;;;0.68;63.93;100969.78;5118601;27;45590;-49
2024/01/16 05:11:54;;;;;;;;;42.75;35.00;;;;;0.67;63.45;100972.41;5116185;27;70497;-49
2024/01/16 05:14:22;;;;;;;;;44.50;33.50;;;;;0.67;63.41;100964.56;5116679;27;47272;-50
2024/01/16 05:16:47;;;;;;;;;39.00;31.00;;;;;0.65;64.14;100970.66;5117718;27;45496;-52
2024/01/16 05:19:12;;;;;;;;;55.75;36.25;;;;;0.65;63.56;100961.94;5109663;27;67928;-52
2024/01/16 05:21:40;;;;;;;;;39.50;36.00;;;;;0.64;63.52;100968.94;5106723;27;70758;-49
2024/01/16 05:24:06;;;;;;;;;45.25;37.50;;;;;0.63;63.76;100966.31;5114656;27;45546;-48
2024/01/16 05:26:31;;;;;;;;;43.00;36.50;;;;;0.62;63.75;100960.19;5117398;27;55428;-48
2024/01/16 05:28:56;;;;;;;;;39.75;35.25;;;;;0.61;64.84;100960.22;5117605;27;68346;-47
2024/01/16 05:31:22;;;;;;;;;42.00;32.00;;;;;0.59;64.62;100957.63;5118541;27;45306;-48
2024/01/16 05:33:47;;;;;;;;;46.25;36.75;;;;;0.59;63.85;100962.84;5120080;27;45351;-50
2024/01/16 05:36:12;;;;;;;;;45.50;35.75;;;;;0.58;64.29;100953.25;5119082;27;49583;-52
2024/01/16 05:38:38;;;;;;;;;46.75;36.50;;;;;0.60;63.97;100964.59;5120656;27;68292;-48
2024/01/16 05:41:04;;;;;;;;;48.75;40.00;;;;;0.59;64.21;100967.22;5121272;27;45449;-48
2024/01/16 05:43:29;;;;;;;;;40.25;36.25;;;;;0.60;64.81;100967.22;5121358;27;74586;-49
2024/01/16 05:45:55;;;;;;;;;36.50;31.50;;;;;0.60;64.50;100955.84;5121084;27;46612;-47
2024/01/16 05:48:20;;;;;;;;;39.50;33.25;;;;;0.58;64.16;100953.25;5120264;27;65949;-48
2024/01/16 05:50:45;;;;;;;;;39.50;31.00;;;;;0.58;64.17;100950.63;5121794;27;46618;-51
2024/01/16 05:53:11;;;;;;;;;49.50;37.00;;;;;0.58;64.44;100942.78;5119791;27;74569;-47
2024/01/16 05:55:36;;;;;;;;;40.50;36.00;;;;;0.58;64.12;100944.53;5115946;27;45883;-47
2024/01/16 05:58:02;;;;;;;;;39.50;34.75;;;;;0.58;64.88;100939.31;5120732;27;45518;-48
2024/01/16 06:00:27;;;;;;;;;38.50;33.25;;;;;0.58;65.21;100939.31;5122212;27;45400;-50
2024/01/16 06:02:53;;;;;;;;;43.75;32.00;;;;;0.56;64.55;100939.31;5116123;27;69054;-49
2024/01/16 06:05:18;;;;;;;;;48.50;34.25;;;;;0.55;65.17;100932.34;5116825;27;58596;-51
2024/01/16 06:07:43;;;;;;;;;31.00;26.00;;;;;0.54;65.27;100924.50;5119377;27;67236;-47
2024/01/16 06:10:12;;;;;;;;;39.75;37.50;;;;;0.51;64.81;100933.25;5121528;27;45467;-48
2024/01/16 06:12:37;;;;;;;;;40.50;37.75;;;;;0.51;64.56;100927.13;5121151;27;47020;-52
2024/01/16 06:15:03;;;;;;;;;41.50;33.25;;;;;0.48;65.19;100921.03;5108689;27;56052;-51
2024/01/16 06:17:28;;;;;;;;;35.75;34.75;;;;;0.48;64.30;100931.50;5118311;27;45492;-52
2024/01/16 06:19:54;;;;;;;;;43.25;35.75;;;;;0.46;64.55;100935.88;5111922;27;70224;-48
2024/01/16 06:22:19;;;;;;;;;39.25;34.75;;;;;0.45;64.71;100935.88;5118109;27;45982;-49
2024/01/16 06:24:44;;;;;;;;;40.50;36.50;;;;;0.43;64.90;100942.88;5120804;27;59196;-49
2024/01/16 06:27:10;;;;;;;;;35.25;31.25;;;;;0.43;65.36;100938.53;5120415;27;60077;-49
2024/01/16 06:29:35;;;;;;;;;38.50;35.50;;;;;0.42;65.10;100936.78;5118594;27;45243;-51
2024/01/16 06:32:00;;;;;;;;;42.75;32.75;;;;;0.42;64.97;100946.38;5119874;27;76447;-50
2024/01/16 06:34:27;;;;;;;;;44.00;38.50;;;;;0.41;65.16;100942.03;5117897;27;45485;-49
2024/01/16 06:36:52;;;;;;;;;43.75;36.25;;;;;0.41;65.44;100931.56;5118485;27;45484;-49
2024/01/16 06:39:18;;;;;;;;;41.75;32.00;;;;;0.40;65.61;100935.03;5120774;27;49593;-50
2024/01/16 06:41:43;;;;;;;;;45.50;38.25;;;;;0.38;65.32;100939.41;5119613;27;46356;-50
2024/01/16 06:44:08;;;;;;;;;43.50;37.50;;;;;0.37;65.30;100937.69;5117777;27;62441;-50
2024/01/16 06:46:34;;;;;;;;;45.00;36.00;;;;;0.37;65.73;100938.56;5119968;27;45513;-50
2024/01/16 06:49:00;;;;;;;;;34.75;32.25;;;;;0.37;65.13;100943.78;5120436;27;45551;-47
2024/01/16 06:51:25;;;;;;;;;37.50;35.25;;;;;0.38;65.26;100942.91;5118695;27;46084;-47
2024/01/16 06:53:50;;;;;;;;;39.50;37.75;;;;;0.37;65.05;100943.78;5114428;27;72736;-48
2024/01/16 06:56:16;;;;;;;;;44.00;36.75;;;;;0.35;64.94;100944.66;5107592;27;46092;-49
2024/01/16 06:58:41;;;;;;;;;42.50;36.50;;;;;0.36;65.75;100951.66;5116547;27;45502;-50
2024/01/16 07:01:09;;;;;;;;;48.25;38.50;;;;;0.35;65.27;100950.75;5119961;27;46261;-51
2024/01/16 07:03:34;;;;;;;;;40.00;30.75;;;;;0.35;65.16;100955.13;5114367;27;45441;-50
2024/01/16 07:05:59;;;;;;;;;43.25;34.25;;;;;0.32;65.48;100946.41;5113258;27;45292;-46
2024/01/16 07:08:25;;;;;;;;;36.00;33.00;;;;;0.33;65.79;100957.78;5114156;27;68051;-48
2024/01/16 07:10:50;;;;;;;;;29.50;28.75;;;;;0.35;65.48;100945.53;5116082;27;45533;-48
2024/01/16 07:13:16;;;;;;;;;31.50;29.75;;;;;0.36;64.80;100955.13;5115447;27;45666;-48
2024/01/16 07:15:41;;;;;;;;;33.50;31.75;;;;;0.38;65.44;100960.34;5114418;27;46076;-49
2024/01/16 07:18:06;;;;;;;;;31.00;29.25;;;;;0.41;65.02;100950.72;5111825;27;45457;-50
2024/01/16 07:20:32;;;;;;;;;33.50;28.25;;;;;0.43;65.26;100935.91;5113053;27;46901;-48
2024/01/16 07:22:57;;;;;;;;;30.25;25.25;;;;;0.44;65.17;100937.66;5113293;27;72861;-49
2024/01/16 07:25:22;;;;;;;;;40.25;37.75;;;;;0.46;65.04;100937.63;5116303;27;45522;-48
2024/01/16 07:27:49;;;;;;;;;33.25;26.25;;;;;0.47;65.05;100949.81;5109120;27;53314;-49
2024/01/16 07:30:15;;;;;;;;;38.00;32.25;;;;;0.47;64.58;100948.09;5110114;27;47336;-52
2024/01/16 07:32:40;;;;;;;;;37.75;33.25;;;;;0.46;65.01;100946.34;5116068;27;45613;-51
2024/01/16 07:35:06;;;;;;;;;34.50;31.00;;;;;0.47;64.93;100955.94;5106827;27;50230;-53
2024/01/16 07:37:32;;;;;;;;;44.75;36.00;;;;;0.49;65.48;100962.03;5113262;27;45837;-50
2024/01/16 07:39:57;;;;;;;;;40.50;32.00;;;;;0.53;65.90;100951.56;5114365;27;47084;-49
2024/01/16 07:42:23;;;;;;;;;42.25;35.25;;;;;0.53;64.85;100939.31;5110091;27;45587;-52
2024/01/16 07:44:48;;;;;;;;;37.00;33.25;;;;;0.52;65.89;100936.72;5116476;27;45626;-53
2024/01/16 07:47:13;;;;;;;;;37.00;32.00;;;;;0.52;65.44;100937.56;5111634;27;67258;-54
2024/01/16 07:49:39;;;;;;;;;33.00;31.00;;;;;0.53;65.64;100946.31;5115697;27;73712;-49
2024/01/16 07:52:04;;;;;;;;;37.50;34.50;;;;;0.49;65.19;100950.69;5112345;27;70184;-53
2024/01/16 07:54:30;;;;;;;;;37.50;35.50;;;;;0.48;65.45;100955.06;5110932;27;45902;-52
2024/01/16 07:56:56;;;;;;;;;44.25;38.00;;;;;0.48;65.62;100951.56;5112392;27;45813;-50
2024/01/16 07:59:21;;;;;;;;;42.75;35.50;;;;;0.49;64.82;100945.47;5145341;27;47048;-52
2024/01/16 08:01:47;;;;;;;;;47.75;39.50;;;;;0.53;64.67;100962.03;5114366;27;45598;-53
2024/01/16 08:04:12;;;;;;;;;43.00;35.00;;;;;0.56;65.41;100955.03;5097633;27;45753;-52
2024/01/16 08:06:37;;;;;;;;;41.25;38.75;;;;;0.59;64.63;100952.38;5112245;27;45428;-52
2024/01/16 08:09:03;;;;;;;;;43.00;33.50;;;;;0.61;65.17;100952.38;5114874;27;49843;-52
2024/01/16 08:11:29;;;;;;;;;36.00;34.00;;;;;0.63;65.31;100966.31;5116461;27;70578;-52
2024/01/16 08:13:54;;;;;;;;;43.75;39.00;;;;;0.65;65.08;100964.56;5111299;27;45770;-53
2024/01/16 08:16:20;;;;;;;;;35.25;30.25;;;;;0.64;64.39;100958.44;5111708;27;67746;-51
2024/01/16 08:18:46;;;;;;;;;40.00;36.00;;;;;0.64;64.43;100963.69;5113874;27;46193;-51
2024/01/16 08:21:11;;;;;;;;;33.75;27.25;;;;;0.65;64.67;100956.69;5118898;27;45338;-49
2024/01/16 08:23:36;;;;;;;;;37.50;31.50;;;;;0.70;64.52;100954.91;5114003;27;45898;-53
2024/01/16 08:26:02;;;;;;;;;38.75;33.50;;;;;0.75;64.40;100953.13;5118066;27;45417;-50
2024/01/16 08:28:27;;;;;;;;;33.75;30.50;;;;;0.85;64.70;100947.81;5119733;27;45401;-50
2024/01/16 08:30:53;;;;;;;;;44.25;37.00;;;;;0.96;64.56;100956.47;5118987;27;45546;-48
2024/01/16 08:33:18;;;;;;;;;38.00;32.75;;;;;1.04;64.31;100957.28;5119877;27;45362;-49
2024/01/16 08:35:44;;;;;;;;;48.75;40.00;;;;;1.14;64.79;100964.19;5115366;27;45449;-51
2024/01/16 08:38:09;;;;;;;;;39.25;36.25;;;;;1.22;64.42;100961.50;5107357;27;45966;-52
2024/01/16 08:40:35;;;;;;;;;36.25;34.25;;;;;1.30;63.68;100974.53;5119258;27;45327;-48
2024/01/16 08:43:00;;;;;;;;;35.75;35.00;;;;;1.38;64.17;100972.72;5116385;27;56608;-51
2024/01/16 08:45:28;;;;;;;;;35.75;33.75;;;;;1.42;63.61;100956.09;5117717;27;45561;-50
2024/01/16 08:47:53;;;;;;;;;37.50;33.50;;;;;1.47;63.49;100943.81;5118038;27;45583;-52
2024/01/16 08:50:19;;;;;;;;;34.50;31.50;;;;;1.58;63.34;100950.69;5110076;27;60062;-49
2024/01/16 08:52:44;;;;;;;;;42.50;37.25;;;;;1.63;62.95;100939.28;5117374;27;45458;-48
2024/01/16 08:55:09;;;;;;;;;39.75;34.00;;;;;1.61;63.21;100932.31;5115717;27;67851;-53
2024/01/16 08:57:37;;;;;;;;;24.50;22.50;;;;;1.63;63.28;100936.66;5118142;27;74616;-53
2024/01/16 09:00:05;;;;;;;;;38.75;34.75;;;;;1.65;62.72;100939.25;5119338;27;45467;-49
2024/01/16 09:02:31;;;;;;;;;34.00;30.25;;;;;1.65;63.03;100942.72;5129776;27;45407;-50
2024/01/16 09:04:58;;;;;;;;;36.50;30.75;;;;;1.64;63.12;100948.88;5113534;27;46051;-50
2024/01/16 09:07:23;;;;;;;;;38.75;36.25;;;;;1.59;62.92;100948.06;5116254;27;47073;-51
2024/01/16 09:09:49;;;;;;;;;38.50;32.25;;;;;1.53;62.82;100939.38;5121224;27;45471;-52
2024/01/16 09:12:15;;;;;;;;;49.00;37.00;;;;;1.46;63.35;100938.56;5118555;27;69222;-52
2024/01/16 09:14:41;;;;;;;;;34.50;31.50;;;;;1.40;63.61;100944.75;5114890;27;68532;-53
2024/01/16 09:17:06;;;;;;;;;43.25;35.00;;;;;1.35;63.00;100945.69;5119362;27;46212;-53
2024/01/16 09:19:31;;;;;;;;;36.50;35.00;;;;;1.30;63.19;100949.22;5120527;27;64395;-52
2024/01/16 09:21:57;;;;;;;;;42.50;35.00;;;;;1.28;63.19;100956.22;5120403;27;71191;-49
2024/01/16 09:24:23;;;;;;;;;40.25;36.00;;;;;1.29;63.50;100957.06;5117941;27;45367;-53
2024/01/16 09:26:48;;;;;;;;;51.50;39.50;;;;;1.30;63.33;100943.09;5115208;27;68647;-48
2024/01/16 09:29:14;;;;;;;;;41.25;33.25;;;;;1.33;63.87;100932.59;5122434;27;50707;-49
2024/01/16 09:31:40;;;;;;;;;40.25;37.25;;;;;1.36;63.08;100926.47;5113857;27;45395;-53
2024/01/16 09:34:06;;;;;;;;;44.75;37.25;;;;;1.38;62.87;100932.53;5112649;27;45535;-50
2024/01/16 09:36:31;;;;;;;;;49.75;39.75;;;;;1.39;63.01;100932.50;5122203;27;45952;-50
2024/01/16 09:38:56;;;;;;;;;48.25;41.25;;;;;1.41;63.38;100930.75;5148596;27;73471;-49
2024/01/16 09:41:22;;;;;;;;;55.75;44.75;;;;;1.42;63.39;100931.63;5116937;27;60695;-50
2024/01/16 09:43:48;;;;;;;;;54.00;42.50;;;;;1.44;63.53;100920.22;5096074;27;45518;-51
2024/01/16 09:46:15;;;;;;;;;58.00;45.75;;;;;1.47;63.05;100914.09;5110024;27;46975;-53
2024/01/16 09:48:44;;;;;;;;;60.75;44.00;;;;;1.50;63.44;100916.69;5122416;27;45442;-50
2024/01/16 09:51:14;;;;;;;;;61.75;44.75;;;;;1.53;63.38;100903.53;5112704;27;45603;-52
2024/01/16 09:53:40;;;;;;;;;58.50;46.50;;;;;1.57;63.13;100904.38;5113459;27;45525;-49
2024/01/16 09:56:15;;;;;;;;;53.25;44.00;;;;;1.59;63.40;100915.69;5115046;27;46275;-53
2024/01/16 09:58:40;;;;;;;;;55.50;41.50;;;;;1.63;63.50;100914.78;5119371;27;45333;-51
2024/01/16 10:01:06;;;;;;;;;52.25;41.50;;;;;2.21;63.75;100921.06;5113776;27;45415;-48
2024/01/16 10:03:34;;;;;;;;;49.50;39.00;;;;;3.57;62.29;100913.66;5117377;27;63854;-50
2024/01/16 10:06:03;;;;;;;;;48.75;36.75;;;;;5.00;58.37;100906.09;5113963;27;45368;-49
2024/01/16 10:08:30;;;;;;;;;54.50;44.75;;;;;6.32;57.28;100906.00;5101348;27;45699;-52
2024/01/16 10:10:55;;;;;;;;;48.75;38.00;;;;;7.49;55.38;100895.16;5121599;27;45400;-49
2024/01/16 10:13:21;;;;;;;;;53.25;42.00;;;;;8.46;53.20;100907.47;5116290;27;68850;-48
2024/01/16 10:15:54;;;;;;;;;53.75;43.75;;;;;9.29;50.85;100894.34;5113385;27;46889;-52
2024/01/16 10:18:24;;;;;;;;;58.25;45.00;;;;;9.96;49.38;100887.84;5120822;27;45431;-53
2024/01/16 10:20:50;;;;;;;;;52.00;41.50;;;;;10.50;49.54;100892.44;5119587;27;45378;-53
2024/01/16 10:23:41;;;;;;;;;51.75;42.75;;;;;11.11;45.03;100882.34;5121379;27;45413;-53
2024/01/16 10:26:07;;;;;;;;;23.25;15.50;;;;;11.49;45.40;100880.38;5113535;27;75195;-53
2024/01/16 10:28:35;;;;;;;;;53.25;42.75;;;;;11.75;44.90;100875.47;5113779;27;45628;-49
2024/01/16 10:31:03;;;;;;;;;54.50;43.50;;;;;12.00;45.54;100869.69;5119890;27;45491;-52
2024/01/16 10:33:28;;;;;;;;;55.00;45.50;;;;;12.37;44.71;100870.31;5121761;27;45522;-51
2024/01/16 10:36:19;;;;;;;;;61.00;45.25;;;;;12.58;43.68;100870.03;5109053;27;69091;-50
2024/01/16 10:38:45;;;;;;;;;55.00;44.50;;;;;12.74;43.69;100868.19;5118079;27;45459;-50
2024/01/16 10:41:17;;;;;;;;;48.75;40.25;;;;;12.90;41.52;100861.97;5115140;27;45350;-54
2024/01/16 10:43:46;;;;;;;;;56.50;44.00;;;;;12.93;42.43;100864.44;5117411;27;45616;-52
2024/01/16 10:46:13;;;;;;;;;53.50;44.50;;;;;13.01;40.68;100859.53;5112359;27;45460;-49
2024/01/16 10:48:41;;;;;;;;;51.25;41.50;;;;;13.04;40.00;100856.66;5112375;27;45355;-54
2024/01/16 10:51:08;;;;;;;;;53.00;43.25;;;;;13.15;40.33;100863.19;5139666;27;45405;-53
2024/01/16 10:53:34;;;;;;;;;53.50;44.75;;;;;13.23;41.00;100855.56;5120906;27;45547;-54
2024/01/16 10:56:01;;;;;;;;;54.50;45.25;;;;;13.34;41.02;100862.94;5119520;27;45328;-53
2024/01/16 10:58:27;;;;;;;;;60.75;48.50;;;;;13.42;41.32;100849.16;5099520;27;45487;-53
2024/01/16 11:00:54;;;;;;;;;80.00;64.00;;;;;13.45;39.67;100849.78;5120548;27;45478;-53
2024/01/16 11:03:31;;;;;;;;;78.25;63.75;;;;;13.44;37.87;100848.09;5117120;27;45386;-52
2024/01/16 11:05:58;;;;;;;;;84.50;71.50;;;;;13.44;39.12;100844.56;5113405;27;47072;-53
2024/01/16 11:08:29;;;;;;;;;66.75;53.75;;;;;13.45;38.11;100836.44;5118213;27;45444;-54
2024/01/16 11:10:55;;;;;;;;;78.25;59.50;;;;;13.44;38.52;100839.22;5120174;27;45462;-49